createdAt,value
2018-03-11T00:00:51.670Z,22.09
2018-03-11T00:02:00.591Z,22.06
2018-03-11T00:03:09.760Z,22.15
2018-03-11T00:04:18.921Z,22.06
2018-03-11T00:05:27.890Z,22.1
2018-03-11T00:06:36.803Z,22.07
2018-03-11T00:07:46.026Z,22.05
2018-03-11T00:08:54.965Z,22.12
2018-03-11T00:10:03.659Z,22.07
2018-03-11T00:11:12.614Z,22.07
2018-03-11T00:12:21.844Z,22.1
2018-03-11T00:13:31.315Z,22.12
2018-03-11T00:14:40.766Z,22.12
2018-03-11T00:15:50.005Z,21.96
2018-03-11T00:16:59.167Z,21.98
2018-03-11T00:18:08.122Z,22.09
2018-03-11T00:19:17.298Z,22.1
2018-03-11T00:20:26.199Z,22.14
2018-03-11T00:21:35.135Z,22.02
2018-03-11T00:22:44.339Z,21.99
2018-03-11T00:23:52.988Z,21.98
2018-03-11T00:25:01.659Z,22.02
2018-03-11T00:26:10.576Z,21.98
2018-03-11T00:27:19.512Z,21.98
2018-03-11T00:28:28.444Z,22.09
2018-03-11T00:29:37.627Z,22.07
2018-03-11T00:30:47.054Z,21.99
2018-03-11T00:31:56.480Z,22.02
2018-03-11T00:33:05.395Z,22.05
2018-03-11T00:34:14.302Z,22.09
2018-03-11T00:35:23.489Z,21.98
2018-03-11T00:36:32.653Z,22.05
2018-03-11T00:37:41.816Z,22.03
2018-03-11T00:38:50.990Z,21.99
2018-03-11T00:39:59.908Z,21.99
2018-03-11T00:41:08.842Z,21.96
2018-03-11T00:42:18.012Z,21.94
2018-03-11T00:43:26.664Z,22.02
2018-03-11T00:44:35.569Z,21.94
2018-03-11T00:45:44.472Z,21.9
2018-03-11T00:46:53.920Z,21.98
2018-03-11T00:48:02.833Z,22.02
2018-03-11T00:49:12.037Z,22
2018-03-11T00:50:20.937Z,21.98
2018-03-11T00:51:29.598Z,21.98
2018-03-11T00:52:38.492Z,21.94
2018-03-11T00:53:47.394Z,22
2018-03-11T00:54:56.603Z,21.98
2018-03-11T00:56:05.570Z,21.96
2018-03-11T00:57:14.211Z,22.02
2018-03-11T00:58:23.380Z,21.98
2018-03-11T00:59:32.572Z,21.96
2018-03-11T01:00:41.242Z,21.98
2018-03-11T01:01:50.446Z,21.96
2018-03-11T01:02:59.124Z,21.96
2018-03-11T01:04:08.284Z,21.98
2018-03-11T01:05:17.330Z,21.91
2018-03-11T01:06:27.015Z,22.02
2018-03-11T01:07:36.175Z,22.03
2018-03-11T01:08:45.110Z,22.06
2018-03-11T01:09:54.285Z,21.98
2018-03-11T01:11:03.195Z,21.94
2018-03-11T01:12:12.360Z,21.98
2018-03-11T01:13:21.275Z,22
2018-03-11T01:14:30.500Z,21.99
2018-03-11T01:15:39.679Z,21.88
2018-03-11T01:16:48.329Z,21.99
2018-03-11T01:17:57.277Z,22.02
2018-03-11T01:19:05.961Z,21.96
2018-03-11T01:20:15.230Z,21.88
2018-03-11T01:21:24.144Z,21.9
2018-03-11T01:22:33.573Z,22
2018-03-11T01:23:42.802Z,21.9
2018-03-11T01:24:52.491Z,21.9
2018-03-11T01:26:01.394Z,22.03
2018-03-11T01:27:10.557Z,21.96
2018-03-11T01:28:19.725Z,22
2018-03-11T01:29:28.889Z,21.98
2018-03-11T01:30:37.815Z,21.91
2018-03-11T01:31:47.253Z,21.96
2018-03-11T01:32:56.431Z,21.96
2018-03-11T01:34:05.856Z,21.96
2018-03-11T01:35:14.792Z,21.83
2018-03-11T01:36:24.232Z,21.99
2018-03-11T01:37:33.391Z,22
2018-03-11T01:38:42.850Z,21.94
2018-03-11T01:39:52.553Z,22
2018-03-11T01:41:01.195Z,21.84
2018-03-11T01:42:10.881Z,21.96
2018-03-11T01:43:20.331Z,22
2018-03-11T01:44:29.264Z,22
2018-03-11T01:45:38.446Z,21.86
2018-03-11T01:46:47.616Z,21.96
2018-03-11T01:47:56.281Z,22
2018-03-11T01:49:04.965Z,21.98
2018-03-11T01:50:13.863Z,21.9
2018-03-11T01:51:23.030Z,21.9
2018-03-11T01:52:31.926Z,21.96
2018-03-11T01:53:40.579Z,21.99
2018-03-11T01:54:49.744Z,21.92
2018-03-11T01:55:58.437Z,21.92
2018-03-11T01:57:07.146Z,21.94
2018-03-11T01:58:15.803Z,21.91
2018-03-11T01:59:24.442Z,21.88
2018-03-11T02:00:33.391Z,21.84
2018-03-11T02:01:42.051Z,21.9
2018-03-11T02:02:51.209Z,21.91
2018-03-11T02:04:00.634Z,21.94
2018-03-11T02:05:09.804Z,21.91
2018-03-11T02:06:18.446Z,21.91
2018-03-11T02:07:27.337Z,21.94
2018-03-11T02:08:36.505Z,21.88
2018-03-11T02:09:45.771Z,21.91
2018-03-11T02:10:54.697Z,21.86
2018-03-11T02:12:03.708Z,21.9
2018-03-11T02:13:12.353Z,21.96
2018-03-11T02:14:21.253Z,21.82
2018-03-11T02:15:30.163Z,21.92
2018-03-11T02:16:38.802Z,21.91
2018-03-11T02:17:47.495Z,21.92
2018-03-11T02:18:56.151Z,21.94
2018-03-11T02:20:05.573Z,21.86
2018-03-11T02:21:14.744Z,21.9
2018-03-11T02:22:23.429Z,21.82
2018-03-11T02:23:32.653Z,21.86
2018-03-11T02:24:41.830Z,21.91
2018-03-11T02:25:50.493Z,21.92
2018-03-11T02:26:59.379Z,21.86
2018-03-11T02:28:08.527Z,21.88
2018-03-11T02:29:17.441Z,21.86
2018-03-11T02:30:26.588Z,21.84
2018-03-11T02:31:35.762Z,21.79
2018-03-11T02:32:45.186Z,21.9
2018-03-11T02:33:54.644Z,21.79
2018-03-11T02:35:03.551Z,21.9
2018-03-11T02:36:13.011Z,21.84
2018-03-11T02:37:22.452Z,21.83
2018-03-11T02:38:31.377Z,21.84
2018-03-11T02:39:40.269Z,21.92
2018-03-11T02:40:49.194Z,21.9
2018-03-11T02:41:58.901Z,21.75
2018-03-11T02:43:08.334Z,21.88
2018-03-11T02:44:17.516Z,21.8
2018-03-11T02:45:26.956Z,21.92
2018-03-11T02:46:35.700Z,21.75
2018-03-11T02:47:45.158Z,21.72
2018-03-11T02:48:54.074Z,21.9
2018-03-11T02:50:02.969Z,21.79
2018-03-11T02:51:12.194Z,21.74
2018-03-11T02:52:21.662Z,21.9
2018-03-11T02:53:30.840Z,21.77
2018-03-11T02:54:39.763Z,21.74
2018-03-11T02:55:48.695Z,21.74
2018-03-11T02:56:57.357Z,21.74
2018-03-11T02:58:06.786Z,21.79
2018-03-11T02:59:15.972Z,21.71
2018-03-11T03:00:25.128Z,21.8
2018-03-11T03:01:34.300Z,21.77
2018-03-11T03:02:43.222Z,21.86
2018-03-11T03:03:52.155Z,21.77
2018-03-11T03:05:01.305Z,21.74
2018-03-11T03:06:09.974Z,21.84
2018-03-11T03:07:18.904Z,21.86
2018-03-11T03:08:27.828Z,21.75
2018-03-11T03:09:36.738Z,21.84
2018-03-11T03:10:45.636Z,21.84
2018-03-11T03:11:54.298Z,21.83
2018-03-11T03:13:03.462Z,21.82
2018-03-11T03:14:12.629Z,21.75
2018-03-11T03:15:22.033Z,21.83
2018-03-11T03:16:30.691Z,21.84
2018-03-11T03:17:39.607Z,21.69
2018-03-11T03:18:48.294Z,21.83
2018-03-11T03:19:57.029Z,21.84
2018-03-11T03:21:06.437Z,21.8
2018-03-11T03:22:15.347Z,21.8
2018-03-11T03:23:24.059Z,21.79
2018-03-11T03:24:33.243Z,21.86
2018-03-11T03:25:42.147Z,21.79
2018-03-11T03:26:51.816Z,21.82
2018-03-11T03:28:00.464Z,21.8
2018-03-11T03:29:09.918Z,21.83
2018-03-11T03:30:19.346Z,21.82
2018-03-11T03:31:28.540Z,21.74
2018-03-11T03:32:38.001Z,21.77
2018-03-11T03:33:47.706Z,21.74
2018-03-11T03:34:56.898Z,21.79
2018-03-11T03:36:05.569Z,21.77
2018-03-11T03:37:14.733Z,21.74
2018-03-11T03:38:23.630Z,21.74
2018-03-11T03:39:32.530Z,21.77
2018-03-11T03:40:41.173Z,21.74
2018-03-11T03:41:50.131Z,21.68
2018-03-11T03:42:59.033Z,21.75
2018-03-11T03:44:08.456Z,21.77
2018-03-11T03:45:17.096Z,21.74
2018-03-11T03:46:26.268Z,21.72
2018-03-11T03:47:35.691Z,21.74
2018-03-11T03:48:44.586Z,21.77
2018-03-11T03:49:53.751Z,21.75
2018-03-11T03:51:02.957Z,21.68
2018-03-11T03:52:11.900Z,21.77
2018-03-11T03:53:21.304Z,21.75
2018-03-11T03:54:30.479Z,21.75
2018-03-11T03:55:39.135Z,21.75
2018-03-11T03:56:48.562Z,21.69
2018-03-11T03:57:58.044Z,21.74
2018-03-11T03:59:07.505Z,21.75
2018-03-11T04:00:16.662Z,21.72
2018-03-11T04:01:25.316Z,21.69
2018-03-11T04:02:34.527Z,21.72
2018-03-11T04:03:43.717Z,21.74
2018-03-11T04:04:52.378Z,21.74
2018-03-11T04:06:01.856Z,21.74
2018-03-11T04:07:11.045Z,21.83
2018-03-11T04:08:20.231Z,21.68
2018-03-11T04:09:29.404Z,21.79
2018-03-11T04:10:38.848Z,21.77
2018-03-11T04:11:48.030Z,21.71
2018-03-11T04:12:56.941Z,21.74
2018-03-11T04:14:06.106Z,21.69
2018-03-11T04:15:15.307Z,21.72
2018-03-11T04:16:24.236Z,21.67
2018-03-11T04:17:33.656Z,21.67
2018-03-11T04:18:42.338Z,21.75
2018-03-11T04:19:51.767Z,21.65
2018-03-11T04:21:00.941Z,21.69
2018-03-11T04:22:10.824Z,21.65
2018-03-11T04:23:20.239Z,21.67
2018-03-11T04:24:28.884Z,21.65
2018-03-11T04:25:37.841Z,21.58
2018-03-11T04:26:46.763Z,21.65
2018-03-11T04:27:56.198Z,21.64
2018-03-11T04:29:05.372Z,21.65
2018-03-11T04:30:14.800Z,21.65
2018-03-11T04:31:36.709Z,21.65
2018-03-11T04:32:45.353Z,21.68
2018-03-11T04:33:54.022Z,21.67
2018-03-11T04:35:02.936Z,21.62
2018-03-11T04:36:12.100Z,21.62
2018-03-11T04:37:20.743Z,21.62
2018-03-11T04:38:30.174Z,21.65
2018-03-11T04:39:39.847Z,21.65
2018-03-11T04:40:48.481Z,21.67
2018-03-11T04:41:57.143Z,21.64
2018-03-11T04:43:06.312Z,21.67
2018-03-11T04:44:15.484Z,21.61
2018-03-11T04:45:24.664Z,21.64
2018-03-11T04:46:33.578Z,21.62
2018-03-11T04:47:42.480Z,21.58
2018-03-11T04:48:51.633Z,21.62
2018-03-11T04:50:00.811Z,21.65
2018-03-11T04:51:09.722Z,21.61
2018-03-11T04:52:18.893Z,21.61
2018-03-11T04:53:28.068Z,21.61
2018-03-11T04:54:36.981Z,21.65
2018-03-11T04:55:45.621Z,21.61
2018-03-11T04:56:54.540Z,21.59
2018-03-11T04:58:03.235Z,21.64
2018-03-11T04:59:12.169Z,21.59
2018-03-11T05:00:20.812Z,21.67
2018-03-11T05:01:29.736Z,21.64
2018-03-11T05:02:38.908Z,21.62
2018-03-11T05:03:48.338Z,21.62
2018-03-11T05:04:58.044Z,21.65
2018-03-11T05:06:07.471Z,21.65
2018-03-11T05:07:16.408Z,21.61
2018-03-11T05:08:26.118Z,21.64
2018-03-11T05:09:35.553Z,21.59
2018-03-11T05:10:45.046Z,21.61
2018-03-11T05:11:54.236Z,21.62
2018-03-11T05:13:03.418Z,21.67
2018-03-11T05:14:12.055Z,21.61
2018-03-11T05:15:21.217Z,21.68
2018-03-11T05:16:30.728Z,21.62
2018-03-11T05:17:39.394Z,21.65
2018-03-11T05:18:48.560Z,21.52
2018-03-11T05:19:57.218Z,21.58
2018-03-11T05:21:06.139Z,21.61
2018-03-11T05:22:15.312Z,21.59
2018-03-11T05:23:23.993Z,21.59
2018-03-11T05:24:33.188Z,21.52
2018-03-11T05:25:42.647Z,21.58
2018-03-11T05:26:51.806Z,21.53
2018-03-11T05:28:00.709Z,21.54
2018-03-11T05:29:09.625Z,21.56
2018-03-11T05:30:18.559Z,21.61
2018-03-11T05:31:28.248Z,21.54
2018-03-11T05:32:37.194Z,21.54
2018-03-11T05:33:45.858Z,21.59
2018-03-11T05:34:55.107Z,21.52
2018-03-11T05:36:04.321Z,21.54
2018-03-11T05:37:12.992Z,21.59
2018-03-11T05:38:22.160Z,21.58
2018-03-11T05:39:30.819Z,21.52
2018-03-11T05:40:39.733Z,21.54
2018-03-11T05:41:48.914Z,21.53
2018-03-11T05:42:58.102Z,21.58
2018-03-11T05:44:06.804Z,21.54
2018-03-11T05:45:15.454Z,21.56
2018-03-11T05:46:24.096Z,21.5
2018-03-11T05:47:33.051Z,21.64
2018-03-11T05:48:41.967Z,21.56
2018-03-11T05:49:51.646Z,21.59
2018-03-11T05:51:00.832Z,21.61
2018-03-11T05:52:09.988Z,21.58
2018-03-11T05:53:18.908Z,21.53
2018-03-11T05:54:28.136Z,21.61
2018-03-11T05:55:37.041Z,21.56
2018-03-11T05:56:45.681Z,21.68
2018-03-11T05:57:54.839Z,21.61
2018-03-11T05:59:03.489Z,21.5
2018-03-11T06:00:12.678Z,21.64
2018-03-11T06:01:21.827Z,21.59
2018-03-11T06:02:31.001Z,21.59
2018-03-11T06:03:40.175Z,21.61
2018-03-11T06:04:49.127Z,21.59
2018-03-11T06:05:58.298Z,21.58
2018-03-11T06:07:07.298Z,21.59
2018-03-11T06:08:16.483Z,21.56
2018-03-11T06:09:25.444Z,21.62
2018-03-11T06:10:34.677Z,21.58
2018-03-11T06:11:43.864Z,21.58
2018-03-11T06:12:53.121Z,21.62
2018-03-11T06:14:01.777Z,21.65
2018-03-11T06:15:10.951Z,21.59
2018-03-11T06:16:19.919Z,21.61
2018-03-11T06:17:28.594Z,21.59
2018-03-11T06:18:38.022Z,21.64
2018-03-11T06:19:47.491Z,21.64
2018-03-11T06:20:56.390Z,21.62
2018-03-11T06:22:05.682Z,21.61
2018-03-11T06:23:14.362Z,21.64
2018-03-11T06:24:23.243Z,21.65
2018-03-11T06:25:32.185Z,21.68
2018-03-11T06:26:41.436Z,21.61
2018-03-11T06:27:50.680Z,21.65
2018-03-11T06:28:59.877Z,21.64
2018-03-11T06:30:08.587Z,21.67
2018-03-11T06:31:17.889Z,21.71
2018-03-11T06:32:26.822Z,21.65
2018-03-11T06:33:36.873Z,21.68
2018-03-11T06:34:46.300Z,21.68
2018-03-11T06:35:55.011Z,21.74
2018-03-11T06:37:03.926Z,21.61
2018-03-11T06:38:13.119Z,21.65
2018-03-11T06:39:22.024Z,21.69
2018-03-11T06:40:31.197Z,21.71
2018-03-11T06:41:40.901Z,21.68
2018-03-11T06:42:49.894Z,21.72
2018-03-11T06:43:59.571Z,21.74
2018-03-11T06:45:08.475Z,21.69
2018-03-11T06:46:17.680Z,21.72
2018-03-11T06:47:26.854Z,21.77
2018-03-11T06:48:35.790Z,21.77
2018-03-11T06:49:44.699Z,21.67
2018-03-11T06:50:53.621Z,21.69
2018-03-11T06:52:02.780Z,21.72
2018-03-11T06:53:11.678Z,21.69
2018-03-11T06:54:20.571Z,21.77
2018-03-11T06:55:29.512Z,21.71
2018-03-11T06:56:38.453Z,21.75
2018-03-11T06:57:47.625Z,21.69
2018-03-11T06:58:56.297Z,21.72
2018-03-11T07:00:05.753Z,21.75
2018-03-11T07:01:14.664Z,21.72
2018-03-11T07:02:23.604Z,21.69
2018-03-11T07:03:32.770Z,21.77
2018-03-11T07:04:41.440Z,21.77
2018-03-11T07:05:50.589Z,21.86
2018-03-11T07:06:59.246Z,21.8
2018-03-11T07:08:08.401Z,21.83
2018-03-11T07:09:18.136Z,21.75
2018-03-11T07:10:27.111Z,21.8
2018-03-11T07:11:36.029Z,21.8
2018-03-11T07:12:45.210Z,21.83
2018-03-11T07:13:54.114Z,21.82
2018-03-11T07:15:03.809Z,21.83
2018-03-11T07:16:12.743Z,21.84
2018-03-11T07:17:22.290Z,21.79
2018-03-11T07:18:31.202Z,21.8
2018-03-11T07:19:40.100Z,21.77
2018-03-11T07:20:49.542Z,21.8
2018-03-11T07:21:58.970Z,21.8
2018-03-11T07:23:08.155Z,21.86
2018-03-11T07:24:17.320Z,21.71
2018-03-11T07:25:26.520Z,21.91
2018-03-11T07:26:35.461Z,21.91
2018-03-11T07:27:44.885Z,21.99
2018-03-11T07:28:54.122Z,21.9
2018-03-11T07:30:03.335Z,21.98
2018-03-11T07:31:12.000Z,22.03
2018-03-11T07:32:20.914Z,22.05
2018-03-11T07:33:29.807Z,22.17
2018-03-11T07:34:39.230Z,22.22
2018-03-11T07:35:49.223Z,22.24
2018-03-11T07:36:58.649Z,22.22
2018-03-11T07:38:07.804Z,22.3
2018-03-11T07:39:16.975Z,22.42
2018-03-11T07:40:26.170Z,22.46
2018-03-11T07:41:35.341Z,22.45
2018-03-11T07:42:44.527Z,22.42
2018-03-11T07:43:53.938Z,22.55
2018-03-11T07:45:02.872Z,22.58
2018-03-11T07:46:12.731Z,22.58
2018-03-11T07:47:21.668Z,22.62
2018-03-11T07:48:30.846Z,22.62
2018-03-11T07:49:39.568Z,22.75
2018-03-11T07:50:48.725Z,22.7
2018-03-11T07:51:58.158Z,22.76
2018-03-11T07:53:07.487Z,22.79
2018-03-11T07:54:17.690Z,22.86
2018-03-11T07:55:26.890Z,22.9
2018-03-11T07:56:36.107Z,22.91
2018-03-11T07:57:45.737Z,22.97
2018-03-11T07:58:55.518Z,22.92
2018-03-11T08:00:04.504Z,22.95
2018-03-11T08:01:13.694Z,23.01
2018-03-11T08:02:23.131Z,23.01
2018-03-11T08:03:32.027Z,23.05
2018-03-11T08:04:41.928Z,23.1
2018-03-11T08:05:51.700Z,23.12
2018-03-11T08:07:00.599Z,23.15
2018-03-11T08:08:09.566Z,23.17
2018-03-11T08:09:18.994Z,23.19
2018-03-11T08:10:28.453Z,23.19
2018-03-11T08:11:37.106Z,23.16
2018-03-11T08:12:45.886Z,23.2
2018-03-11T08:13:55.339Z,23.2
2018-03-11T08:15:04.754Z,23.4
2018-03-11T08:16:13.974Z,23.32
2018-03-11T08:17:23.410Z,23.39
2018-03-11T08:18:32.857Z,23.42
2018-03-11T08:19:41.768Z,23.46
2018-03-11T08:20:50.941Z,23.39
2018-03-11T08:21:59.600Z,23.42
2018-03-11T08:23:09.020Z,23.54
2018-03-11T08:24:18.225Z,23.5
2018-03-11T08:25:27.388Z,23.48
2018-03-11T08:26:36.578Z,23.57
2018-03-11T08:27:46.312Z,23.58
2018-03-11T08:28:55.779Z,23.61
2018-03-11T08:30:04.693Z,23.69
2018-03-11T08:31:13.615Z,23.61
2018-03-11T08:32:22.811Z,23.7
2018-03-11T08:33:31.753Z,23.66
2018-03-11T08:34:40.682Z,23.7
2018-03-11T08:35:50.433Z,23.68
2018-03-11T08:36:59.341Z,23.65
2018-03-11T08:38:08.516Z,23.73
2018-03-11T08:39:17.205Z,23.78
2018-03-11T08:40:26.377Z,23.7
2018-03-11T08:41:35.278Z,23.65
2018-03-11T08:42:44.210Z,23.79
2018-03-11T08:43:53.476Z,23.73
2018-03-11T08:45:03.212Z,23.79
2018-03-11T08:46:11.819Z,23.8
2018-03-11T08:47:21.272Z,23.83
2018-03-11T08:48:30.439Z,23.84
2018-03-11T08:49:39.862Z,23.76
2018-03-11T08:50:48.774Z,23.9
2018-03-11T08:51:57.682Z,23.88
2018-03-11T08:53:06.585Z,23.87
2018-03-11T08:54:15.507Z,23.88
2018-03-11T08:55:24.676Z,23.9
2018-03-11T08:56:33.844Z,23.9
2018-03-11T08:57:42.791Z,24
2018-03-11T08:58:51.704Z,24.08
2018-03-11T09:00:00.868Z,24.08
2018-03-11T09:01:10.029Z,24.05
2018-03-11T09:02:18.685Z,24.09
2018-03-11T09:03:27.588Z,24.09
2018-03-11T09:04:36.475Z,24.08
2018-03-11T09:05:46.148Z,24.05
2018-03-11T09:06:56.122Z,24.1
2018-03-11T09:08:05.572Z,24.12
2018-03-11T09:09:14.478Z,24.22
2018-03-11T09:10:23.444Z,24.2
2018-03-11T09:11:32.990Z,24.24
2018-03-11T09:12:42.154Z,24.21
2018-03-11T09:13:51.467Z,24.15
2018-03-11T09:15:00.374Z,24.31
2018-03-11T09:16:09.027Z,24.28
2018-03-11T09:17:18.188Z,24.32
2018-03-11T09:18:27.357Z,24.3
2018-03-11T09:19:37.043Z,24.37
2018-03-11T09:20:45.971Z,24.34
2018-03-11T09:21:55.137Z,24.43
2018-03-11T09:23:04.854Z,24.34
2018-03-11T09:24:14.047Z,24.31
2018-03-11T09:25:22.988Z,24.37
2018-03-11T09:26:31.631Z,24.32
2018-03-11T09:27:40.271Z,24.32
2018-03-11T09:28:49.933Z,24.53
2018-03-11T09:29:58.844Z,24.42
2018-03-11T09:31:08.018Z,24.42
2018-03-11T09:32:17.182Z,24.42
2018-03-11T09:33:26.371Z,24.49
2018-03-11T09:34:35.021Z,24.53
2018-03-11T09:35:44.207Z,24.46
2018-03-11T09:36:53.453Z,24.52
2018-03-11T09:38:02.405Z,24.57
2018-03-11T09:39:11.596Z,24.6
2018-03-11T09:40:20.980Z,24.46
2018-03-11T09:41:30.146Z,24.52
2018-03-11T09:42:38.788Z,24.57
2018-03-11T09:43:47.986Z,24.57
2018-03-11T09:44:57.159Z,24.57
2018-03-11T09:46:06.585Z,24.53
2018-03-11T09:47:16.023Z,24.57
2018-03-11T09:48:25.210Z,24.62
2018-03-11T09:49:34.661Z,24.65
2018-03-11T09:50:43.864Z,24.65
2018-03-11T09:51:53.585Z,24.65
2018-03-11T09:53:02.763Z,24.67
2018-03-11T09:54:11.709Z,24.62
2018-03-11T09:55:20.883Z,24.67
2018-03-11T09:56:30.354Z,24.69
2018-03-11T09:57:39.046Z,24.76
2018-03-11T09:58:48.213Z,24.8
2018-03-11T09:59:57.134Z,24.77
2018-03-11T10:01:06.850Z,24.8
2018-03-11T10:02:16.052Z,24.88
2018-03-11T10:03:24.957Z,24.81
2018-03-11T10:04:33.865Z,24.8
2018-03-11T10:05:42.840Z,24.88
2018-03-11T10:06:51.779Z,24.98
2018-03-11T10:08:01.465Z,24.98
2018-03-11T10:09:10.915Z,25.02
2018-03-11T10:10:19.587Z,25.06
2018-03-11T10:11:28.232Z,25.06
2018-03-11T10:12:36.888Z,25
2018-03-11T10:13:45.551Z,25.06
2018-03-11T10:14:54.727Z,25.05
2018-03-11T10:16:03.662Z,25.09
2018-03-11T10:17:13.094Z,25.08
2018-03-11T10:18:22.275Z,25.08
2018-03-11T10:19:30.949Z,25.09
2018-03-11T10:20:39.867Z,25.08
2018-03-11T10:21:49.328Z,25.13
2018-03-11T10:22:58.002Z,25.09
2018-03-11T10:24:07.252Z,25.15
2018-03-11T10:25:16.085Z,25.06
2018-03-11T10:26:25.034Z,25.08
2018-03-11T10:27:34.200Z,25.15
2018-03-11T10:28:43.887Z,25.1
2018-03-11T10:29:52.803Z,25.09
2018-03-11T10:31:01.974Z,25.09
2018-03-11T10:32:10.611Z,25.18
2018-03-11T10:33:20.292Z,25.08
2018-03-11T10:34:29.735Z,25.06
2018-03-11T10:35:38.894Z,25.09
2018-03-11T10:36:47.778Z,25.13
2018-03-11T10:37:56.714Z,25.06
2018-03-11T10:39:05.878Z,25.09
2018-03-11T10:40:15.602Z,25.08
2018-03-11T10:41:24.292Z,25.09
2018-03-11T10:42:33.268Z,25.09
2018-03-11T10:43:43.116Z,25.1
2018-03-11T10:44:53.368Z,25.1
2018-03-11T10:46:02.352Z,25.14
2018-03-11T10:47:12.657Z,25.08
2018-03-11T10:48:22.243Z,25.08
2018-03-11T10:49:31.179Z,25.08
2018-03-11T10:50:40.105Z,25.08
2018-03-11T10:51:49.031Z,25.14
2018-03-11T10:52:57.958Z,25.03
2018-03-11T10:54:07.134Z,25.09
2018-03-11T10:55:16.055Z,25
2018-03-11T10:56:25.240Z,24.98
2018-03-11T10:57:34.461Z,24.99
2018-03-11T10:58:43.415Z,24.95
2018-03-11T10:59:52.416Z,24.93
2018-03-11T11:01:01.600Z,24.93
2018-03-11T11:02:10.558Z,24.81
2018-03-11T11:03:19.172Z,24.85
2018-03-11T11:04:28.128Z,24.71
2018-03-11T11:05:37.569Z,24.6
2018-03-11T11:06:46.996Z,24.46
2018-03-11T11:07:56.724Z,24.39
2018-03-11T11:09:05.397Z,24.45
2018-03-11T11:10:14.092Z,24.27
2018-03-11T11:11:23.579Z,24.08
2018-03-11T11:12:32.523Z,24
2018-03-11T11:13:41.692Z,23.97
2018-03-11T11:14:51.654Z,23.88
2018-03-11T11:16:01.312Z,23.73
2018-03-11T11:17:10.499Z,23.7
2018-03-11T11:18:19.437Z,23.53
2018-03-11T11:19:28.666Z,23.54
2018-03-11T11:20:37.867Z,23.4
2018-03-11T11:21:46.538Z,23.4
2018-03-11T11:22:55.493Z,23.2
2018-03-11T11:24:04.998Z,23.19
2018-03-11T11:25:14.215Z,23.13
2018-03-11T11:26:24.349Z,23.09
2018-03-11T11:27:33.505Z,22.97
2018-03-11T11:28:42.703Z,22.94
2018-03-11T11:29:51.863Z,22.94
2018-03-11T11:31:02.422Z,22.82
2018-03-11T11:32:12.479Z,22.75
2018-03-11T11:33:21.746Z,22.75
2018-03-11T11:34:31.084Z,22.67
2018-03-11T11:35:40.644Z,22.61
2018-03-11T11:36:49.329Z,22.64
2018-03-11T11:37:58.243Z,22.6
2018-03-11T11:39:06.923Z,22.54
2018-03-11T11:40:16.359Z,22.52
2018-03-11T11:41:26.017Z,22.46
2018-03-11T11:42:36.117Z,22.46
2018-03-11T11:43:45.329Z,22.4
2018-03-11T11:44:54.255Z,22.37
2018-03-11T11:46:03.190Z,22.3
2018-03-11T11:47:12.107Z,22.25
2018-03-11T11:48:21.283Z,22.25
2018-03-11T11:49:30.214Z,22.15
2018-03-11T11:50:38.852Z,22.25
2018-03-11T11:51:48.042Z,22.14
2018-03-11T11:52:57.218Z,22.17
2018-03-11T11:54:06.635Z,22.06
2018-03-11T11:55:15.978Z,22
2018-03-11T11:56:25.400Z,22.02
2018-03-11T11:57:34.602Z,21.99
2018-03-11T11:58:43.316Z,21.96
2018-03-11T11:59:51.982Z,21.84
2018-03-11T12:01:01.165Z,21.9
2018-03-11T12:02:10.108Z,21.96
2018-03-11T12:03:18.999Z,21.92
2018-03-11T12:04:28.979Z,21.94
2018-03-11T12:05:38.158Z,21.86
2018-03-11T12:06:47.149Z,21.91
2018-03-11T12:07:55.823Z,21.79
2018-03-11T12:09:04.802Z,21.79
2018-03-11T12:10:13.438Z,21.68
2018-03-11T12:11:22.920Z,21.72
2018-03-11T12:12:31.867Z,21.65
2018-03-11T12:13:41.192Z,21.62
2018-03-11T12:14:50.783Z,21.64
2018-03-11T12:16:01.324Z,21.64
2018-03-11T12:17:10.807Z,21.59
2018-03-11T12:18:20.253Z,21.62
2018-03-11T12:19:29.172Z,21.64
2018-03-11T12:20:38.612Z,21.56
2018-03-11T12:21:48.397Z,21.54
2018-03-11T12:22:58.864Z,21.61
2018-03-11T12:24:08.066Z,21.54
2018-03-11T12:25:16.751Z,21.58
2018-03-11T12:26:25.416Z,21.56
2018-03-11T12:27:34.337Z,21.52
2018-03-11T12:28:42.997Z,21.52
2018-03-11T12:29:51.991Z,21.5
2018-03-11T12:31:00.943Z,21.59
2018-03-11T12:32:09.617Z,21.75
2018-03-11T12:33:18.544Z,21.71
2018-03-11T12:34:28.399Z,21.82
2018-03-11T12:35:37.632Z,21.82
2018-03-11T12:36:46.792Z,21.88
2018-03-11T12:37:55.713Z,21.94
2018-03-11T12:39:04.894Z,21.94
2018-03-11T12:40:13.545Z,22.03
2018-03-11T12:41:22.719Z,22.12
2018-03-11T12:42:31.613Z,22.18
2018-03-11T12:43:41.052Z,22.25
2018-03-11T12:44:49.969Z,22.33
2018-03-11T12:45:58.911Z,22.35
2018-03-11T12:47:07.676Z,22.43
2018-03-11T12:48:16.540Z,22.49
2018-03-11T12:49:25.210Z,22.52
2018-03-11T12:50:34.357Z,22.58
2018-03-11T12:51:43.293Z,22.64
2018-03-11T12:52:51.992Z,22.61
2018-03-11T12:54:00.912Z,22.7
2018-03-11T12:55:09.822Z,22.75
2018-03-11T12:56:18.730Z,22.77
2018-03-11T12:57:27.888Z,22.82
2018-03-11T12:58:36.606Z,22.83
2018-03-11T12:59:46.042Z,22.86
2018-03-11T13:00:54.960Z,22.94
2018-03-11T13:02:04.159Z,22.94
2018-03-11T13:03:13.351Z,22.98
2018-03-11T13:04:23.056Z,23
2018-03-11T13:05:31.966Z,23.07
2018-03-11T13:06:41.394Z,23.01
2018-03-11T13:07:50.585Z,23.09
2018-03-11T13:08:59.537Z,23.17
2018-03-11T13:10:09.801Z,23.15
2018-03-11T13:11:18.718Z,23.17
2018-03-11T13:12:27.896Z,23.17
2018-03-11T13:13:37.597Z,23.17
2018-03-11T13:14:46.511Z,23.19
2018-03-11T13:15:55.685Z,23.22
2018-03-11T13:17:05.776Z,23.27
2018-03-11T13:18:15.235Z,23.25
2018-03-11T13:19:24.395Z,23.31
2018-03-11T13:20:33.510Z,23.19
2018-03-11T13:21:42.421Z,23.15
2018-03-11T13:22:51.390Z,23.2
2018-03-11T13:24:01.520Z,23.22
2018-03-11T13:25:10.466Z,23.22
2018-03-11T13:26:19.317Z,23.28
2018-03-11T13:27:29.098Z,23.28
2018-03-11T13:28:38.026Z,23.27
2018-03-11T13:29:46.833Z,23.27
2018-03-11T13:30:55.812Z,23.28
2018-03-11T13:32:04.730Z,23.32
2018-03-11T13:33:13.979Z,23.28
2018-03-11T13:34:22.633Z,23.32
2018-03-11T13:35:31.804Z,23.28
2018-03-11T13:36:40.999Z,23.2
2018-03-11T13:37:50.177Z,23.25
2018-03-11T13:38:58.826Z,23.31
2018-03-11T13:40:07.821Z,23.43
2018-03-11T13:41:17.008Z,23.39
2018-03-11T13:42:26.742Z,23.43
2018-03-11T13:43:36.179Z,23.4
2018-03-11T13:44:45.556Z,23.35
2018-03-11T13:45:55.291Z,23.36
2018-03-11T13:47:04.224Z,23.38
2018-03-11T13:48:13.712Z,23.36
2018-03-11T13:49:23.160Z,23.43
2018-03-11T13:50:31.840Z,23.43
2018-03-11T13:51:40.759Z,23.47
2018-03-11T13:52:50.048Z,23.43
2018-03-11T13:53:59.224Z,23.42
2018-03-11T13:55:08.125Z,23.47
2018-03-11T13:56:17.015Z,23.46
2018-03-11T13:57:26.196Z,23.48
2018-03-11T13:58:35.395Z,23.5
2018-03-11T13:59:44.329Z,23.46
2018-03-11T14:00:53.499Z,23.54
2018-03-11T14:02:02.443Z,23.57
2018-03-11T14:03:11.362Z,23.5
2018-03-11T14:04:20.824Z,23.53
2018-03-11T14:05:29.997Z,23.58
2018-03-11T14:06:39.324Z,23.57
2018-03-11T14:07:48.212Z,23.48
2018-03-11T14:08:57.637Z,23.57
2018-03-11T14:10:06.809Z,23.54
2018-03-11T14:11:15.751Z,23.54
2018-03-11T14:12:24.797Z,23.5
2018-03-11T14:13:33.712Z,23.54
2018-03-11T14:14:43.781Z,23.6
2018-03-11T14:15:53.244Z,23.55
2018-03-11T14:17:02.911Z,23.61
2018-03-11T14:18:12.145Z,23.51
2018-03-11T14:19:21.323Z,23.55
2018-03-11T14:20:30.241Z,23.61
2018-03-11T14:21:39.418Z,23.53
2018-03-11T14:22:48.075Z,23.54
2018-03-11T14:23:56.763Z,23.57
2018-03-11T14:25:05.391Z,23.69
2018-03-11T14:26:14.281Z,23.69
2018-03-11T14:27:23.197Z,23.63
2018-03-11T14:28:32.116Z,23.61
2018-03-11T14:29:41.567Z,23.63
2018-03-11T14:30:50.762Z,23.66
2018-03-11T14:32:00.215Z,23.61
2018-03-11T14:33:09.440Z,23.57
2018-03-11T14:34:18.361Z,23.66
2018-03-11T14:35:27.255Z,23.65
2018-03-11T14:36:36.163Z,23.61
2018-03-11T14:37:45.588Z,23.68
2018-03-11T14:38:54.769Z,23.66
2018-03-11T14:40:03.734Z,23.65
2018-03-11T14:41:13.158Z,23.65
2018-03-11T14:42:21.798Z,23.61
2018-03-11T14:43:31.238Z,23.6
2018-03-11T14:44:40.688Z,23.66
2018-03-11T14:45:49.855Z,23.66
2018-03-11T14:46:59.022Z,23.66
2018-03-11T14:48:07.673Z,23.63
2018-03-11T14:49:16.845Z,23.61
2018-03-11T14:50:26.279Z,23.63
2018-03-11T14:51:35.485Z,23.66
2018-03-11T14:52:44.664Z,23.66
2018-03-11T14:53:54.518Z,23.6
2018-03-11T14:55:03.725Z,23.63